createdAt,value
2019-01-24T00:00:45.522Z,26.23
2019-01-24T00:03:14.311Z,26.70
2019-01-24T00:05:42.451Z,30.07
2019-01-24T00:08:11.834Z,39.57
2019-01-24T00:10:40.537Z,47.40
2019-01-24T00:13:09.112Z,48.60
2019-01-24T00:15:38.064Z,41.67
2019-01-24T00:18:06.823Z,30.93
2019-01-24T00:20:35.432Z,30.07
2019-01-24T00:23:04.131Z,27.87
2019-01-24T00:25:32.654Z,28.93
2019-01-24T00:28:01.037Z,29.00
2019-01-24T00:30:29.659Z,27.67
2019-01-24T00:32:57.902Z,49.63
2019-01-24T00:35:26.612Z,58.23
2019-01-24T00:37:55.113Z,53.07
2019-01-24T00:40:23.394Z,35.53
2019-01-24T00:42:51.947Z,32.93
2019-01-24T00:45:20.583Z,37.63
2019-01-24T00:47:49.167Z,45.00
2019-01-24T00:50:17.860Z,41.83
2019-01-24T00:52:46.304Z,35.70
2019-01-24T00:55:14.822Z,35.73
2019-01-24T00:57:43.202Z,33.97
2019-01-24T01:00:22.123Z,41.17
2019-01-24T01:02:50.800Z,38.90
2019-01-24T01:05:19.183Z,46.07
2019-01-24T01:07:47.639Z,42.30
2019-01-24T01:10:16.790Z,37.53
2019-01-24T01:12:45.198Z,33.63
2019-01-24T01:15:15.581Z,32.00
2019-01-24T01:17:44.798Z,33.47
2019-01-24T01:20:18.477Z,32.27
2019-01-24T01:22:47.266Z,29.57
2019-01-24T01:25:16.110Z,25.73
2019-01-24T01:27:45.136Z,25.07
2019-01-24T01:30:20.991Z,25.03
2019-01-24T01:32:49.740Z,23.17
2019-01-24T01:35:18.399Z,28.50
2019-01-24T01:37:46.615Z,26.00
2019-01-24T01:40:16.247Z,28.27
2019-01-24T01:42:45.117Z,28.33
2019-01-24T01:45:16.141Z,28.87
2019-01-24T01:47:44.753Z,26.13
2019-01-24T01:50:14.484Z,25.60
2019-01-24T01:52:44.188Z,28.87
2019-01-24T01:55:13.481Z,28.83
2019-01-24T01:57:41.938Z,27.70
2019-01-24T02:00:15.160Z,28.53
2019-01-24T02:02:43.471Z,31.53
2019-01-24T02:05:12.538Z,29.30
2019-01-24T02:07:40.890Z,31.70
2019-01-24T02:10:10.434Z,29.13
2019-01-24T02:12:38.942Z,28.70
2019-01-24T02:15:08.550Z,27.83
2019-01-24T02:17:36.912Z,28.07
2019-01-24T02:20:07.689Z,28.53
2019-01-24T02:22:35.971Z,28.23
2019-01-24T02:25:05.432Z,28.17
2019-01-24T02:27:34.069Z,29.23
2019-01-24T02:30:03.031Z,28.87
2019-01-24T02:32:31.407Z,28.60
2019-01-24T02:35:00.186Z,30.20
2019-01-24T02:37:28.622Z,29.37
2019-01-24T02:39:56.907Z,28.27
2019-01-24T02:42:25.457Z,29.10
2019-01-24T02:44:53.955Z,28.83
2019-01-24T02:47:22.121Z,27.20
2019-01-24T02:49:50.351Z,28.23
2019-01-24T02:52:18.700Z,27.27
2019-01-24T02:54:47.256Z,25.43
2019-01-24T02:57:15.873Z,28.40
2019-01-24T02:59:44.166Z,26.47
2019-01-24T03:02:12.463Z,26.87
2019-01-24T03:04:40.636Z,28.83
2019-01-24T03:07:08.926Z,30.27
2019-01-24T03:09:37.266Z,25.97
2019-01-24T03:12:05.633Z,27.90
2019-01-24T03:14:34.000Z,27.13
2019-01-24T03:17:02.623Z,27.90
2019-01-24T03:19:30.986Z,25.70
2019-01-24T03:21:59.712Z,27.77
2019-01-24T03:24:28.023Z,29.67
2019-01-24T03:26:56.853Z,28.20
2019-01-24T03:29:25.520Z,24.90
2019-01-24T03:31:53.966Z,27.93
2019-01-24T03:34:22.314Z,24.07
2019-01-24T03:36:50.550Z,23.37
2019-01-24T03:39:18.901Z,22.27
2019-01-24T03:41:47.444Z,21.23
2019-01-24T03:44:15.794Z,19.83
2019-01-24T03:46:44.364Z,22.03
2019-01-24T03:49:14.382Z,19.57
2019-01-24T03:51:43.163Z,20.93
2019-01-24T03:54:11.926Z,17.77
2019-01-24T03:56:40.574Z,20.33
2019-01-24T03:59:09.207Z,19.97
2019-01-24T04:01:37.649Z,18.00
2019-01-24T04:04:05.930Z,17.03
2019-01-24T04:06:34.195Z,17.37
2019-01-24T04:09:03.374Z,16.93
2019-01-24T04:11:32.961Z,19.80
2019-01-24T04:14:01.368Z,17.33
2019-01-24T04:16:29.947Z,17.30
2019-01-24T04:18:58.328Z,16.93
2019-01-24T04:21:26.797Z,16.50
2019-01-24T04:23:54.984Z,20.20
2019-01-24T04:26:23.625Z,15.90
2019-01-24T04:28:52.033Z,15.93
2019-01-24T04:31:20.319Z,15.60
2019-01-24T04:33:49.139Z,16.20
2019-01-24T04:36:17.405Z,17.17
2019-01-24T04:38:45.692Z,15.50
2019-01-24T04:41:14.116Z,17.13
2019-01-24T04:43:42.682Z,17.37
2019-01-24T04:46:33.660Z,16.13
2019-01-24T04:49:02.210Z,17.37
2019-01-24T04:51:30.694Z,15.40
2019-01-24T04:53:59.187Z,15.37
2019-01-24T04:56:28.058Z,17.33
2019-01-24T04:58:57.465Z,15.73
2019-01-24T05:01:25.734Z,17.27
2019-01-24T05:03:54.201Z,16.80
2019-01-24T05:06:22.627Z,17.77
2019-01-24T05:08:50.875Z,15.03
2019-01-24T05:11:19.541Z,18.63
2019-01-24T05:13:47.790Z,17.40
2019-01-24T05:16:16.104Z,18.10
2019-01-24T05:18:44.849Z,18.27
2019-01-24T05:21:13.382Z,24.83
2019-01-24T05:23:42.006Z,16.67
2019-01-24T05:26:10.348Z,16.07
2019-01-24T05:28:38.949Z,18.57
2019-01-24T05:31:07.596Z,16.23
2019-01-24T05:33:36.404Z,21.37
2019-01-24T05:36:04.700Z,18.10
2019-01-24T05:38:32.944Z,18.27
2019-01-24T05:41:01.301Z,18.07
2019-01-24T05:43:29.887Z,24.07
2019-01-24T05:45:58.455Z,17.63
2019-01-24T05:48:27.491Z,18.70
2019-01-24T05:50:55.927Z,18.17
2019-01-24T05:53:28.064Z,19.87
2019-01-24T05:55:57.147Z,19.77
2019-01-24T05:58:27.013Z,22.80
2019-01-24T06:00:55.816Z,20.20
2019-01-24T06:03:24.117Z,20.17
2019-01-24T06:05:52.473Z,20.17
2019-01-24T06:08:20.926Z,19.77
2019-01-24T06:10:49.739Z,17.57
2019-01-24T06:13:18.340Z,20.10
2019-01-24T06:15:46.708Z,15.20
2019-01-24T06:18:15.249Z,17.70
2019-01-24T06:20:43.834Z,18.10
2019-01-24T06:23:12.128Z,17.40
2019-01-24T06:25:40.462Z,21.73
2019-01-24T06:28:08.835Z,22.40
2019-01-24T06:30:37.318Z,21.20
2019-01-24T06:33:05.642Z,20.23
2019-01-24T06:35:34.177Z,22.23
2019-01-24T06:38:02.463Z,20.00
2019-01-24T06:40:30.700Z,22.70
2019-01-24T06:42:59.240Z,22.03
2019-01-24T06:45:27.621Z,23.33
2019-01-24T06:47:55.877Z,31.93
2019-01-24T06:50:24.438Z,39.23
2019-01-24T06:52:53.380Z,23.07
2019-01-24T06:55:22.905Z,19.67
2019-01-24T06:57:51.132Z,24.03
2019-01-24T07:00:20.121Z,22.70
2019-01-24T07:02:48.731Z,26.37
2019-01-24T07:05:17.117Z,23.30
2019-01-24T07:07:45.800Z,25.07
2019-01-24T07:10:16.024Z,25.83
2019-01-24T07:12:44.559Z,26.17
2019-01-24T07:15:15.422Z,25.23
2019-01-24T07:17:44.202Z,25.50
2019-01-24T07:20:13.170Z,23.63
2019-01-24T07:22:41.489Z,25.17
2019-01-24T07:25:30.862Z,26.87
2019-01-24T07:28:01.269Z,23.23
2019-01-24T07:30:30.307Z,23.27
2019-01-24T07:32:59.727Z,24.27
2019-01-24T07:35:28.427Z,19.43
2019-01-24T07:37:56.834Z,18.20
2019-01-24T07:40:26.203Z,18.77
2019-01-24T07:42:54.953Z,19.47
2019-01-24T07:45:35.763Z,19.07
2019-01-24T07:48:05.037Z,17.80
2019-01-24T07:50:33.627Z,20.62
2019-01-24T07:53:02.226Z,20.40
2019-01-24T07:55:30.751Z,22.07
2019-01-24T07:57:59.522Z,20.75
2019-01-24T08:00:28.874Z,17.90
2019-01-24T08:02:57.402Z,16.30
2019-01-24T08:05:26.369Z,16.00
2019-01-24T08:07:54.897Z,21.27
2019-01-24T08:10:23.623Z,15.23
2019-01-24T08:12:52.231Z,16.70
2019-01-24T08:15:21.977Z,19.67
2019-01-24T08:18:12.653Z,20.83
2019-01-24T08:20:41.309Z,17.73
2019-01-24T08:23:09.942Z,16.50
2019-01-24T08:25:38.651Z,15.20
2019-01-24T08:28:06.976Z,14.67
2019-01-24T08:30:35.564Z,17.53
2019-01-24T08:33:04.682Z,21.83
2019-01-24T08:35:33.251Z,20.45
2019-01-24T08:38:01.546Z,15.67
2019-01-24T08:40:29.878Z,15.20
2019-01-24T08:42:58.345Z,15.77
2019-01-24T08:45:27.001Z,10.43
2019-01-24T08:47:55.613Z,12.27
2019-01-24T08:50:24.242Z,19.62
2019-01-24T08:52:52.819Z,17.37
2019-01-24T08:55:29.920Z,11.97
2019-01-24T08:57:58.456Z,16.47
2019-01-24T09:00:27.894Z,15.20
2019-01-24T09:02:57.055Z,12.97
2019-01-24T09:05:25.911Z,15.40
2019-01-24T09:07:54.384Z,11.83
2019-01-24T09:10:25.678Z,13.90
2019-01-24T09:12:54.352Z,12.33
2019-01-24T09:15:23.470Z,17.63
2019-01-24T09:17:52.182Z,14.73
2019-01-24T09:20:21.993Z,14.47
2019-01-24T09:22:55.102Z,13.13
2019-01-24T09:25:20.994Z,7.53
2019-01-24T09:27:49.307Z,7.60
2019-01-24T09:30:20.212Z,8.07
2019-01-24T09:32:49.005Z,7.90
2019-01-24T09:35:17.730Z,8.97
2019-01-24T09:37:46.347Z,9.83
2019-01-24T09:40:15.540Z,9.00
2019-01-24T09:42:44.085Z,20.30
2019-01-24T09:45:21.830Z,14.03
2019-01-24T09:47:50.535Z,18.00
2019-01-24T09:50:20.936Z,9.20
2019-01-24T09:52:49.791Z,8.70
2019-01-24T09:55:18.381Z,9.13
2019-01-24T09:57:47.220Z,8.73
2019-01-24T10:00:23.812Z,10.83
2019-01-24T10:02:52.760Z,11.10
2019-01-24T10:05:21.542Z,8.90
2019-01-24T10:07:50.427Z,12.90
2019-01-24T10:10:20.964Z,12.17
2019-01-24T10:12:50.040Z,11.40
2019-01-24T10:15:19.044Z,14.60
2019-01-24T10:17:47.715Z,14.53
2019-01-24T10:20:17.831Z,16.20
2019-01-24T10:22:46.859Z,14.50
2019-01-24T10:25:18.179Z,15.17
2019-01-24T10:27:46.918Z,11.67
2019-01-24T10:30:17.036Z,13.80
2019-01-24T10:32:45.729Z,12.07
2019-01-24T10:35:15.435Z,12.00
2019-01-24T10:37:44.115Z,13.10
2019-01-24T10:40:18.503Z,13.67
2019-01-24T10:42:47.021Z,13.67
2019-01-24T10:45:16.528Z,14.43
2019-01-24T10:47:45.404Z,10.40
2019-01-24T10:50:15.417Z,10.73
2019-01-24T10:52:45.133Z,12.83
2019-01-24T10:55:17.280Z,11.50
2019-01-24T10:57:46.029Z,14.03
2019-01-24T11:00:18.330Z,12.60
2019-01-24T11:02:46.894Z,12.17
2019-01-24T11:05:17.169Z,17.43
2019-01-24T11:07:46.036Z,14.27
2019-01-24T11:10:16.298Z,12.95
2019-01-24T11:12:45.029Z,15.43
2019-01-24T11:15:16.909Z,12.03
2019-01-24T11:17:45.419Z,15.45
2019-01-24T11:20:15.075Z,11.30
2019-01-24T11:22:43.746Z,12.20
2019-01-24T11:25:14.644Z,13.83
2019-01-24T11:27:43.391Z,13.60
2019-01-24T11:30:15.393Z,11.30
2019-01-24T11:32:44.123Z,11.10
2019-01-24T11:35:14.401Z,14.20
2019-01-24T11:37:43.145Z,12.00
2019-01-24T11:40:13.669Z,13.03
2019-01-24T11:42:42.662Z,13.87
2019-01-24T11:45:12.455Z,14.30
2019-01-24T11:47:41.049Z,11.30
2019-01-24T11:50:12.846Z,9.77
2019-01-24T11:52:43.212Z,11.47
2019-01-24T11:55:14.408Z,10.43
2019-01-24T11:57:43.054Z,12.13
2019-01-24T12:00:24.016Z,10.93
2019-01-24T12:02:52.486Z,11.43
2019-01-24T12:05:21.208Z,9.33
2019-01-24T12:07:49.880Z,12.85
2019-01-24T12:10:20.272Z,16.00
2019-01-24T12:12:49.139Z,11.88
2019-01-24T12:15:29.313Z,10.57
2019-01-24T12:17:57.845Z,12.43
2019-01-24T12:20:27.552Z,10.63
2019-01-24T12:22:56.920Z,9.30
2019-01-24T12:25:25.758Z,12.60
2019-01-24T12:27:54.946Z,12.50
2019-01-24T12:30:34.462Z,10.47
2019-01-24T12:33:03.528Z,10.30
2019-01-24T12:35:32.255Z,8.97
2019-01-24T12:38:00.912Z,13.63
2019-01-24T12:40:29.469Z,11.23
2019-01-24T12:42:58.360Z,9.90
2019-01-24T12:45:29.173Z,11.13
2019-01-24T12:47:57.934Z,10.20
2019-01-24T12:50:27.620Z,9.17
2019-01-24T12:52:57.561Z,8.03
2019-01-24T12:55:26.253Z,8.43
2019-01-24T12:57:55.013Z,9.27
2019-01-24T13:00:25.925Z,8.73
2019-01-24T13:02:54.502Z,9.78
2019-01-24T13:05:23.295Z,8.87
2019-01-24T13:07:51.888Z,8.53
2019-01-24T13:10:22.164Z,8.50
2019-01-24T13:12:50.877Z,8.83
2019-01-24T13:15:21.595Z,8.53
2019-01-24T13:17:50.526Z,8.88
2019-01-24T13:20:19.236Z,14.67
2019-01-24T13:22:47.792Z,8.27
2019-01-24T13:25:18.695Z,9.10
2019-01-24T13:27:47.268Z,9.10
2019-01-24T13:30:18.263Z,8.93
2019-01-24T13:32:46.904Z,7.20
2019-01-24T13:35:15.556Z,8.87
2019-01-24T13:37:44.203Z,9.23
2019-01-24T13:40:15.281Z,9.30
2019-01-24T13:42:44.002Z,12.10
2019-01-24T13:45:14.709Z,8.23
2019-01-24T13:47:43.504Z,8.77
2019-01-24T13:50:14.031Z,9.13
2019-01-24T13:52:42.667Z,8.97
2019-01-24T13:55:11.791Z,8.17
2019-01-24T13:57:40.377Z,8.50
2019-01-24T14:00:26.199Z,8.80
2019-01-24T14:03:01.901Z,8.73
2019-01-24T14:05:30.905Z,9.73
2019-01-24T14:07:59.408Z,12.13
2019-01-24T14:10:28.160Z,10.87
2019-01-24T14:12:56.732Z,10.57
2019-01-24T14:15:25.455Z,14.40
2019-01-24T14:17:55.034Z,11.47
2019-01-24T14:20:23.674Z,12.37
2019-01-24T14:22:52.552Z,10.03
2019-01-24T14:25:21.631Z,13.43
2019-01-24T14:27:50.319Z,23.50
2019-01-24T14:30:23.513Z,18.97
2019-01-24T14:32:52.599Z,20.00
2019-01-24T14:35:21.148Z,19.43
2019-01-24T14:37:49.958Z,22.00
2019-01-24T14:40:22.499Z,11.90
2019-01-24T14:42:52.607Z,20.53
2019-01-24T14:45:23.982Z,23.60
2019-01-24T14:47:53.975Z,15.77
2019-01-24T14:50:24.563Z,21.47
2019-01-24T14:52:53.211Z,16.90
2019-01-24T14:55:29.323Z,18.97
2019-01-24T14:58:01.223Z,34.17
2019-01-24T15:00:32.261Z,68.23
2019-01-24T15:03:01.041Z,43.77
2019-01-24T15:05:29.830Z,40.20
2019-01-24T15:07:58.396Z,121.60
2019-01-24T15:10:27.033Z,118.20
2019-01-24T15:12:55.745Z,79.37
2019-01-24T15:15:24.409Z,33.90
2019-01-24T15:17:53.016Z,26.23
2019-01-24T15:20:21.697Z,20.20
2019-01-24T15:22:50.430Z,20.73
2019-01-24T15:25:19.246Z,23.53
2019-01-24T15:27:47.826Z,24.83
2019-01-24T15:30:18.959Z,19.30
2019-01-24T15:32:47.557Z,16.93
2019-01-24T15:35:16.159Z,16.90
2019-01-24T15:37:45.198Z,15.10
2019-01-24T15:40:19.071Z,16.67
2019-01-24T15:42:47.926Z,16.53
2019-01-24T15:45:16.619Z,30.57
2019-01-24T15:47:45.434Z,27.67
2019-01-24T15:50:15.655Z,31.17
2019-01-24T15:52:44.138Z,24.80
2019-01-24T15:55:13.621Z,29.40
2019-01-24T15:57:42.252Z,29.63
2019-01-24T16:00:19.977Z,26.67
2019-01-24T16:02:48.633Z,31.47
2019-01-24T16:05:17.404Z,28.30
2019-01-24T16:07:45.949Z,32.47
2019-01-24T16:10:15.755Z,44.50
2019-01-24T16:12:44.516Z,43.60
2019-01-24T16:15:16.088Z,42.97
2019-01-24T16:17:44.760Z,46.17
2019-01-24T16:20:14.367Z,59.95
2019-01-24T16:22:42.908Z,48.40
2019-01-24T16:25:12.810Z,100.00
2019-01-24T16:27:41.734Z,33.33
2019-01-24T16:30:14.471Z,28.10
2019-01-24T16:32:43.131Z,30.37
2019-01-24T16:35:12.080Z,36.63
2019-01-24T16:37:40.648Z,25.50
2019-01-24T16:40:10.772Z,24.10
2019-01-24T16:42:39.496Z,25.67
2019-01-24T16:45:11.337Z,23.57
2019-01-24T16:47:40.069Z,23.57
2019-01-24T16:50:09.759Z,24.97
2019-01-24T16:52:38.336Z,27.90
2019-01-24T16:55:09.462Z,33.50
2019-01-24T16:57:38.262Z,30.37
2019-01-24T17:00:17.762Z,33.33
2019-01-24T17:02:46.324Z,37.10
2019-01-24T17:05:15.249Z,38.70
2019-01-24T17:07:43.880Z,35.70
2019-01-24T17:10:15.657Z,52.80
2019-01-24T17:12:44.357Z,74.47
2019-01-24T17:15:13.876Z,58.07
2019-01-24T17:17:42.566Z,58.37
2019-01-24T17:20:15.070Z,55.57
2019-01-24T17:22:43.666Z,50.87
2019-01-24T17:25:12.535Z,51.93
2019-01-24T17:27:46.042Z,48.53
2019-01-24T17:30:15.198Z,45.37
2019-01-24T17:32:43.897Z,39.43
2019-01-24T17:35:13.081Z,39.57
2019-01-24T17:37:41.639Z,37.47
2019-01-24T17:40:13.873Z,37.27
2019-01-24T17:42:42.398Z,40.17
2019-01-24T17:45:12.231Z,40.07
2019-01-24T17:47:40.793Z,35.23
2019-01-24T17:50:11.790Z,39.97
2019-01-24T17:52:41.842Z,38.57
2019-01-24T17:55:13.674Z,37.20
2019-01-24T17:57:42.321Z,45.47
2019-01-24T18:00:17.458Z,43.23
2019-01-24T18:02:45.933Z,35.50
2019-01-24T18:05:14.771Z,37.40
2019-01-24T18:07:43.572Z,37.60
2019-01-24T18:10:15.381Z,34.67
2019-01-24T18:12:44.152Z,35.23
2019-01-24T18:15:15.917Z,32.67
2019-01-24T18:17:44.832Z,33.73
2019-01-24T18:20:18.378Z,37.03
2019-01-24T18:22:48.473Z,41.40
2019-01-24T18:25:17.232Z,34.80
2019-01-24T18:27:48.045Z,47.30
2019-01-24T18:30:19.705Z,43.83
2019-01-24T18:32:48.999Z,45.43
2019-01-24T18:35:17.556Z,44.07
2019-01-24T18:37:46.303Z,48.90
2019-01-24T18:40:17.159Z,43.45
2019-01-24T18:42:46.031Z,42.90
2019-01-24T18:45:17.524Z,45.00
2019-01-24T18:47:45.800Z,47.67
2019-01-24T18:50:17.352Z,59.47
2019-01-24T18:52:45.644Z,53.50
2019-01-24T18:55:14.361Z,42.73
2019-01-24T18:57:43.153Z,40.00
2019-01-24T19:00:19.816Z,45.70
2019-01-24T19:02:48.619Z,37.00
2019-01-24T19:05:17.544Z,43.90
2019-01-24T19:07:47.992Z,48.00
2019-01-24T19:10:22.523Z,42.73
2019-01-24T19:12:51.263Z,41.87
2019-01-24T19:15:20.238Z,37.37
2019-01-24T19:17:49.839Z,36.17
2019-01-24T19:20:18.559Z,29.50
2019-01-24T19:22:47.234Z,34.73
2019-01-24T19:25:17.276Z,30.80
2019-01-24T19:27:46.042Z,39.57
2019-01-24T19:30:25.867Z,40.93
2019-01-24T19:32:54.680Z,38.40
2019-01-24T19:35:23.290Z,30.00
2019-01-24T19:37:51.925Z,25.60
2019-01-24T19:40:21.335Z,26.57
2019-01-24T19:42:50.101Z,24.57
2019-01-24T19:45:21.527Z,53.23
2019-01-24T19:47:50.099Z,113.53
2019-01-24T19:50:20.854Z,119.50
2019-01-24T19:52:49.415Z,66.83
2019-01-24T19:55:18.522Z,54.37
2019-01-24T19:57:47.263Z,55.13
2019-01-24T20:00:24.198Z,68.17
2019-01-24T20:02:52.916Z,72.87
2019-01-24T20:05:21.744Z,41.83
2019-01-24T20:07:50.541Z,42.03
2019-01-24T20:10:20.770Z,44.77
2019-01-24T20:12:50.375Z,39.07
2019-01-24T20:15:23.782Z,38.70
2019-01-24T20:17:52.446Z,33.33
2019-01-24T20:20:21.194Z,32.27
2019-01-24T20:22:50.131Z,32.30
2019-01-24T20:25:20.074Z,27.97
2019-01-24T20:27:48.388Z,33.80
2019-01-24T20:30:19.389Z,29.13
2019-01-24T20:32:48.494Z,26.83
2019-01-24T20:35:23.128Z,27.93
2019-01-24T20:37:51.939Z,29.13
2019-01-24T20:40:20.647Z,31.83
2019-01-24T20:42:49.261Z,32.33
2019-01-24T20:45:17.823Z,33.33
2019-01-24T20:47:46.662Z,33.47
2019-01-24T20:50:15.603Z,26.63
2019-01-24T20:52:44.236Z,29.87
2019-01-24T20:55:13.096Z,26.60
2019-01-24T20:57:41.662Z,28.93
2019-01-24T21:00:16.395Z,30.93
2019-01-24T21:02:44.809Z,30.17
2019-01-24T21:05:16.175Z,32.70
2019-01-24T21:07:44.894Z,29.23
2019-01-24T21:10:18.763Z,35.70
2019-01-24T21:12:47.294Z,34.43
2019-01-24T21:15:16.680Z,32.30
2019-01-24T21:17:45.362Z,41.87
2019-01-24T21:20:16.479Z,45.13
2019-01-24T21:22:45.141Z,32.97
2019-01-24T21:25:15.068Z,32.47
2019-01-24T21:27:43.600Z,40.90
2019-01-24T21:30:15.703Z,33.73
2019-01-24T21:32:44.053Z,32.17
2019-01-24T21:35:13.120Z,33.30
2019-01-24T21:37:41.909Z,31.03
2019-01-24T21:40:12.343Z,37.60
2019-01-24T21:42:40.977Z,29.43
2019-01-24T21:45:15.021Z,36.27
2019-01-24T21:47:43.722Z,40.57
2019-01-24T21:50:15.178Z,42.17
2019-01-24T21:52:43.900Z,37.03
2019-01-24T21:55:13.163Z,35.80
2019-01-24T21:57:41.915Z,34.03
2019-01-24T22:00:12.562Z,33.53
2019-01-24T22:02:41.051Z,33.07
2019-01-24T22:05:10.312Z,36.30
2019-01-24T22:07:39.034Z,37.60
2019-01-24T22:10:09.564Z,51.13
2019-01-24T22:12:38.023Z,37.67
2019-01-24T22:15:08.090Z,38.00
2019-01-24T22:17:36.566Z,31.10
2019-01-24T22:20:05.670Z,51.60
2019-01-24T22:22:34.230Z,48.90
2019-01-24T22:25:03.001Z,55.83
2019-01-24T22:27:31.493Z,51.40
2019-01-24T22:30:00.055Z,67.37
2019-01-24T22:32:28.639Z,48.47
2019-01-24T22:34:57.222Z,36.03
2019-01-24T22:37:25.814Z,35.10
2019-01-24T22:39:54.128Z,43.00
2019-01-24T22:42:22.730Z,38.50
2019-01-24T22:44:50.970Z,37.07
2019-01-24T22:47:19.580Z,38.63
2019-01-24T22:49:47.978Z,36.83
2019-01-24T22:52:16.379Z,34.70
2019-01-24T22:54:44.956Z,30.50
2019-01-24T22:57:13.384Z,26.60
2019-01-24T22:59:42.076Z,28.80
2019-01-24T23:02:23.201Z,31.43
2019-01-24T23:04:51.582Z,32.70
2019-01-24T23:07:20.092Z,30.23
2019-01-24T23:09:48.622Z,38.47
2019-01-24T23:12:17.224Z,46.80
2019-01-24T23:14:45.835Z,52.40
2019-01-24T23:17:14.404Z,45.47
2019-01-24T23:19:43.128Z,50.33
2019-01-24T23:22:11.547Z,42.63
2019-01-24T23:24:39.899Z,39.40
2019-01-24T23:27:08.483Z,45.80
2019-01-24T23:29:37.080Z,52.20
2019-01-24T23:32:05.816Z,55.40
2019-01-24T23:34:34.461Z,54.93
2019-01-24T23:37:03.049Z,54.20
2019-01-24T23:39:31.439Z,53.20
2019-01-24T23:41:59.953Z,48.73
2019-01-24T23:44:28.629Z,48.30
2019-01-24T23:46:57.403Z,44.93
2019-01-24T23:49:25.764Z,41.27
2019-01-24T23:51:54.442Z,37.33
2019-01-24T23:54:22.975Z,53.07
2019-01-24T23:56:51.317Z,116.60
2019-01-24T23:59:19.973Z,53.83
